createdAt,value
2023-04-09T00:02:56.813Z,99.90
2023-04-09T00:06:58.138Z,99.90
2023-04-09T00:10:59.700Z,99.90
2023-04-09T00:15:01.351Z,99.90
2023-04-09T00:19:02.544Z,99.90
2023-04-09T00:23:03.732Z,99.90
2023-04-09T00:27:04.898Z,99.90
2023-04-09T00:31:06.109Z,99.90
2023-04-09T00:35:08.108Z,99.90
2023-04-09T00:39:09.273Z,99.90
2023-04-09T00:43:11.548Z,99.90
2023-04-09T00:47:12.847Z,99.90
2023-04-09T00:51:14.016Z,99.90
2023-04-09T00:55:16.112Z,99.90
2023-04-09T00:59:17.467Z,99.90
2023-04-09T01:03:18.804Z,99.90
2023-04-09T01:07:54.387Z,99.90
2023-04-09T01:12:00.892Z,99.90
2023-04-09T01:16:03.223Z,99.90
2023-04-09T01:20:17.198Z,99.90
2023-04-09T01:24:37.017Z,99.90
2023-04-09T01:28:44.077Z,99.90
2023-04-09T01:32:45.458Z,99.90
2023-04-09T01:36:50.437Z,99.90
2023-04-09T01:40:53.206Z,99.90
2023-04-09T01:44:54.709Z,99.90
2023-04-09T01:48:56.962Z,99.90
2023-04-09T01:53:02.446Z,99.90
2023-04-09T01:57:03.586Z,99.90
2023-04-09T02:01:08.523Z,99.90
2023-04-09T02:05:13.454Z,99.90
2023-04-09T02:09:18.017Z,99.90
2023-04-09T02:13:20.306Z,99.90
2023-04-09T02:17:21.596Z,99.90
2023-04-09T02:21:23.443Z,99.90
2023-04-09T02:25:26.117Z,99.90
2023-04-09T02:29:27.467Z,99.90
2023-04-09T02:33:28.630Z,99.90
2023-04-09T02:37:29.799Z,99.90
2023-04-09T02:41:31.003Z,99.90
2023-04-09T02:45:32.165Z,99.90
2023-04-09T02:49:33.355Z,99.90
2023-04-09T02:53:34.532Z,99.90
2023-04-09T02:57:36.613Z,99.90
2023-04-09T03:01:37.849Z,99.90
2023-04-09T03:05:39.065Z,99.90
2023-04-09T03:09:40.347Z,99.90
2023-04-09T03:13:41.521Z,99.90
2023-04-09T03:17:42.683Z,99.90
2023-04-09T03:21:43.858Z,99.90
2023-04-09T03:25:45.116Z,99.90
2023-04-09T03:29:46.278Z,99.90
2023-04-09T03:33:47.558Z,99.90
2023-04-09T03:37:48.775Z,99.90
2023-04-09T03:41:50.025Z,99.90
2023-04-09T03:45:51.189Z,99.90
2023-04-09T03:49:52.339Z,99.90
2023-04-09T03:53:53.520Z,99.90
2023-04-09T03:57:54.692Z,99.90
2023-04-09T04:01:56.101Z,99.90
2023-04-09T04:06:02.160Z,99.90
2023-04-09T04:10:05.145Z,99.90
2023-04-09T04:14:06.329Z,99.90
2023-04-09T04:18:08.483Z,99.90
2023-04-09T04:22:09.795Z,99.90
2023-04-09T04:26:11.367Z,99.90
2023-04-09T04:30:12.612Z,99.90
2023-04-09T04:34:13.792Z,99.90
2023-04-09T04:38:14.971Z,99.90
2023-04-09T04:42:16.742Z,99.90
2023-04-09T04:46:19.871Z,99.90
2023-04-09T04:51:10.977Z,99.90
2023-04-09T04:55:12.160Z,99.90
2023-04-09T04:59:13.356Z,99.90
2023-04-09T05:03:14.680Z,99.90
2023-04-09T05:07:15.946Z,99.90
2023-04-09T05:11:17.216Z,99.90
2023-04-09T05:15:18.505Z,99.90
2023-04-09T05:19:19.717Z,99.90
2023-04-09T05:23:20.979Z,99.90
2023-04-09T05:27:23.577Z,99.90
2023-04-09T05:31:24.850Z,99.90
2023-04-09T05:35:26.062Z,99.90
2023-04-09T05:39:27.223Z,99.90
2023-04-09T05:43:28.411Z,99.90
2023-04-09T05:47:29.927Z,99.90
2023-04-09T05:51:31.312Z,99.90
2023-04-09T05:55:32.493Z,99.90
2023-04-09T05:59:33.693Z,99.90
2023-04-09T06:03:35.317Z,99.90
2023-04-09T06:07:36.581Z,99.90
2023-04-09T06:11:37.784Z,99.90
2023-04-09T06:15:39.011Z,99.90
2023-04-09T06:19:40.175Z,99.90
2023-04-09T06:23:41.386Z,99.90
2023-04-09T06:27:42.549Z,99.90
2023-04-09T06:31:43.764Z,99.90
2023-04-09T06:35:45.145Z,99.90
2023-04-09T06:39:58.088Z,99.90
2023-04-09T06:43:49.282Z,99.90
2023-04-09T06:47:50.720Z,99.90
2023-04-09T06:51:55.423Z,99.90
2023-04-09T06:55:57.223Z,99.90
2023-04-09T06:59:58.474Z,99.90
2023-04-09T07:03:59.758Z,99.90
2023-04-09T07:08:01.142Z,99.90
2023-04-09T07:12:02.370Z,99.90
2023-04-09T07:16:04.575Z,99.90
2023-04-09T07:20:06.841Z,99.90
2023-04-09T07:24:08.064Z,99.90
2023-04-09T07:28:09.423Z,99.90
2023-04-09T07:32:10.970Z,99.90
2023-04-09T07:36:12.461Z,99.90
2023-04-09T07:40:13.695Z,99.90
2023-04-09T07:44:14.936Z,99.90
2023-04-09T07:48:16.125Z,99.90
2023-04-09T07:52:17.295Z,99.90
2023-04-09T07:56:18.473Z,99.90
2023-04-09T08:00:19.909Z,99.90
2023-04-09T08:04:21.306Z,99.90
2023-04-09T08:08:22.661Z,99.90
2023-04-09T08:12:23.844Z,99.90
2023-04-09T08:16:25.239Z,99.90
2023-04-09T08:20:27.382Z,99.90
2023-04-09T08:24:28.541Z,99.90
2023-04-09T08:28:30.494Z,99.90
2023-04-09T08:32:31.701Z,99.90
2023-04-09T08:36:34.710Z,99.90
2023-04-09T08:40:36.527Z,99.90
2023-04-09T08:44:38.010Z,99.90
2023-04-09T08:48:41.860Z,99.90
2023-04-09T08:52:46.285Z,99.90
2023-04-09T08:56:47.456Z,99.90
2023-04-09T09:00:48.623Z,99.90
2023-04-09T09:04:50.321Z,99.90
2023-04-09T09:09:08.714Z,99.90
2023-04-09T09:13:22.308Z,99.90
2023-04-09T09:17:24.200Z,99.90
2023-04-09T09:21:28.309Z,99.90
2023-04-09T09:25:30.188Z,99.90
2023-04-09T09:29:32.331Z,99.90
2023-04-09T09:33:33.497Z,99.90
2023-04-09T09:37:34.672Z,99.90
2023-04-09T09:41:36.598Z,99.90
2023-04-09T09:45:38.284Z,99.90
2023-04-09T09:49:39.648Z,99.90
2023-04-09T09:53:44.433Z,99.90
2023-04-09T09:57:47.429Z,96.60
2023-04-09T10:01:52.519Z,95.30
2023-04-09T10:05:54.795Z,91.50
2023-04-09T10:09:57.835Z,94.80
2023-04-09T10:14:00.116Z,93.20
2023-04-09T10:18:02.559Z,97.50
2023-04-09T10:22:13.150Z,99.40
2023-04-09T10:26:14.687Z,99.90
2023-04-09T10:30:35.388Z,97.90
2023-04-09T10:34:44.448Z,95.60
2023-04-09T10:38:46.246Z,97.50
2023-04-09T10:42:48.661Z,97.50
2023-04-09T10:46:52.892Z,92.50
2023-04-09T10:50:54.963Z,95.40
2023-04-09T10:54:56.530Z,94.70
2023-04-09T10:58:57.685Z,92.90
2023-04-09T11:03:14.676Z,94.40
2023-04-09T11:07:18.707Z,92.30
2023-04-09T11:11:23.688Z,90.40
2023-04-09T11:15:24.913Z,91.60
2023-04-09T11:19:28.032Z,76.10
2023-04-09T11:23:30.510Z,75.60
2023-04-09T11:27:37.297Z,67.10
2023-04-09T11:31:38.490Z,65.30
2023-04-09T11:35:39.940Z,67.30
2023-04-09T11:39:43.855Z,61.80
2023-04-09T11:43:45.038Z,59.80
2023-04-09T11:47:46.714Z,59.60
2023-04-09T11:51:48.386Z,59.60
2023-04-09T11:55:51.262Z,59.50
2023-04-09T11:59:52.451Z,63.20
2023-04-09T12:03:55.331Z,60.90
2023-04-09T12:08:01.867Z,61.80
2023-04-09T12:12:06.917Z,60.40
2023-04-09T12:16:11.607Z,60.10
2023-04-09T12:20:12.868Z,59.40
2023-04-09T12:24:16.420Z,59.30
2023-04-09T12:28:17.605Z,60.00
2023-04-09T12:32:18.802Z,59.30
2023-04-09T12:36:20.161Z,59.80
2023-04-09T12:40:21.836Z,58.80
2023-04-09T12:44:23.038Z,57.00
2023-04-09T12:48:24.187Z,60.20
2023-04-09T12:52:27.305Z,59.00
2023-04-09T12:56:29.824Z,53.80
2023-04-09T13:00:32.702Z,54.40
2023-04-09T13:04:34.062Z,55.80
2023-04-09T13:08:35.829Z,56.80
2023-04-09T13:12:37.097Z,56.80
2023-04-09T13:16:39.728Z,57.30
2023-04-09T13:20:41.079Z,56.60
2023-04-09T13:24:42.652Z,57.40
2023-04-09T13:28:43.854Z,54.90
2023-04-09T13:32:45.146Z,52.20
2023-04-09T13:36:46.329Z,51.50
2023-04-09T13:40:47.507Z,51.50
2023-04-09T13:44:48.674Z,51.40
2023-04-09T13:48:50.056Z,50.80
2023-04-09T13:52:51.248Z,51.90
2023-04-09T13:56:52.500Z,51.10
2023-04-09T14:00:53.660Z,50.40
2023-04-09T14:04:56.421Z,50.20
2023-04-09T14:08:57.580Z,50.80
2023-04-09T14:12:58.673Z,50.30
2023-04-09T14:16:59.745Z,51.60
2023-04-09T14:21:00.790Z,49.70
2023-04-09T14:25:11.179Z,51.20
2023-04-09T14:29:12.386Z,48.70
2023-04-09T14:33:13.697Z,51.70
2023-04-09T14:37:14.849Z,52.50
2023-04-09T14:41:16.206Z,52.80
2023-04-09T14:45:17.454Z,50.60
2023-04-09T14:49:18.589Z,50.10
2023-04-09T14:53:20.275Z,49.20
2023-04-09T14:57:21.438Z,49.80
2023-04-09T15:01:22.745Z,48.70
2023-04-09T15:05:23.906Z,47.00
2023-04-09T15:09:25.593Z,46.60
2023-04-09T15:13:26.798Z,47.80
2023-04-09T15:17:29.894Z,46.70
2023-04-09T15:21:31.031Z,45.20
2023-04-09T15:25:32.385Z,47.30
2023-04-09T15:29:33.635Z,47.60
2023-04-09T15:33:34.825Z,48.90
2023-04-09T15:37:37.930Z,49.70
2023-04-09T15:41:39.109Z,49.40
2023-04-09T15:45:40.738Z,49.00
2023-04-09T15:49:42.333Z,50.90
2023-04-09T15:53:43.509Z,49.40
2023-04-09T15:57:46.095Z,50.10
2023-04-09T16:01:48.007Z,50.50
2023-04-09T16:05:49.253Z,52.60
2023-04-09T16:09:50.537Z,51.00
2023-04-09T16:13:51.680Z,50.50
2023-04-09T16:17:52.906Z,50.60
2023-04-09T16:21:54.076Z,50.70
2023-04-09T16:25:55.263Z,49.00
2023-04-09T16:29:56.507Z,50.60
2023-04-09T16:33:57.812Z,50.10
2023-04-09T16:37:59.278Z,51.20
2023-04-09T16:42:01.059Z,51.40
2023-04-09T16:46:02.458Z,52.10
2023-04-09T16:50:04.747Z,52.00
2023-04-09T16:54:10.464Z,51.50
2023-04-09T16:58:11.682Z,52.10
2023-04-09T17:02:12.937Z,53.20
2023-04-09T17:06:14.250Z,53.50
2023-04-09T17:10:15.522Z,53.50
2023-04-09T17:14:16.830Z,53.10
2023-04-09T17:18:19.123Z,52.50
2023-04-09T17:22:20.270Z,52.60
2023-04-09T17:26:21.341Z,51.30
2023-04-09T17:30:22.527Z,52.10
2023-04-09T17:34:24.310Z,52.70
2023-04-09T17:38:26.403Z,52.70
2023-04-09T17:42:28.772Z,53.30
2023-04-09T17:46:29.976Z,53.70
2023-04-09T17:50:31.103Z,53.70
2023-04-09T17:54:35.188Z,54.30
2023-04-09T17:58:36.353Z,53.70
2023-04-09T18:02:37.855Z,54.40
2023-04-09T18:06:39.143Z,55.50
2023-04-09T18:10:40.720Z,56.60
2023-04-09T18:14:41.889Z,56.40
2023-04-09T18:18:43.078Z,57.00
2023-04-09T18:22:44.381Z,58.10
2023-04-09T18:26:45.515Z,59.40
2023-04-09T18:30:46.714Z,61.30
2023-04-09T18:34:47.891Z,63.00
2023-04-09T18:38:49.101Z,63.10
2023-04-09T18:42:53.763Z,65.30
2023-04-09T18:46:55.007Z,67.80
2023-04-09T18:50:56.209Z,72.20
2023-04-09T18:54:57.551Z,72.90
2023-04-09T18:58:58.687Z,73.50
2023-04-09T19:03:00.208Z,75.60
2023-04-09T19:07:02.108Z,82.90
2023-04-09T19:11:07.552Z,83.30
2023-04-09T19:15:09.927Z,88.40
2023-04-09T19:19:11.236Z,88.70
2023-04-09T19:23:12.586Z,86.10
2023-04-09T19:27:13.769Z,84.90
2023-04-09T19:31:16.257Z,88.70
2023-04-09T19:35:17.413Z,90.30
2023-04-09T19:39:18.818Z,92.00
2023-04-09T19:43:20.379Z,90.80
2023-04-09T19:47:21.577Z,92.30
2023-04-09T19:51:22.704Z,90.60
2023-04-09T19:55:24.397Z,93.80
2023-04-09T19:59:25.592Z,95.00
2023-04-09T20:03:26.986Z,95.60
2023-04-09T20:07:28.232Z,94.00
2023-04-09T20:11:29.443Z,99.90
2023-04-09T20:15:30.748Z,98.00
2023-04-09T20:19:31.936Z,96.80
2023-04-09T20:23:33.354Z,99.10
2023-04-09T20:27:34.459Z,97.20
2023-04-09T20:31:36.752Z,98.00
2023-04-09T20:35:41.384Z,97.70
2023-04-09T20:39:43.329Z,98.30
2023-04-09T20:43:45.804Z,99.40
2023-04-09T20:47:46.960Z,99.90
2023-04-09T20:51:49.199Z,99.90
2023-04-09T20:55:55.620Z,99.90
2023-04-09T21:00:00.867Z,99.90
2023-04-09T21:04:08.947Z,99.90
2023-04-09T21:08:14.336Z,99.90
2023-04-09T21:12:15.920Z,99.90
2023-04-09T21:16:17.857Z,99.90
2023-04-09T21:20:19.623Z,99.90
2023-04-09T21:24:22.808Z,99.90
2023-04-09T21:28:27.486Z,99.90
2023-04-09T21:32:34.652Z,99.90
2023-04-09T21:36:38.417Z,99.90
2023-04-09T21:40:49.764Z,99.90
2023-04-09T21:44:57.217Z,99.90
2023-04-09T21:49:06.820Z,99.90
2023-04-09T21:53:19.873Z,99.90
2023-04-09T21:57:23.055Z,99.90
2023-04-09T22:01:30.882Z,99.90
2023-04-09T22:05:33.708Z,99.90
2023-04-09T22:09:35.293Z,99.90
2023-04-09T22:13:36.469Z,99.90
2023-04-09T22:17:38.093Z,99.90
2023-04-09T22:21:40.642Z,99.90
2023-04-09T22:25:41.830Z,99.90
2023-04-09T22:29:43.016Z,99.90
2023-04-09T22:33:44.192Z,99.90
2023-04-09T22:37:46.298Z,99.90
2023-04-09T22:41:47.477Z,99.90
2023-04-09T22:45:51.440Z,99.90
2023-04-09T22:49:54.219Z,99.90
2023-04-09T22:53:55.532Z,99.90
2023-04-09T22:57:57.613Z,99.90
2023-04-09T23:01:59.168Z,99.90
2023-04-09T23:06:00.926Z,99.90
2023-04-09T23:10:04.039Z,99.90
2023-04-09T23:14:05.292Z,99.90
2023-04-09T23:18:07.036Z,99.90
2023-04-09T23:22:08.664Z,99.90
2023-04-09T23:26:10.577Z,99.90
2023-04-09T23:30:14.300Z,99.90
2023-04-09T23:34:15.806Z,99.90
2023-04-09T23:38:17.582Z,99.90
2023-04-09T23:42:19.456Z,99.90
2023-04-09T23:46:21.038Z,99.90
2023-04-09T23:50:23.865Z,99.90
2023-04-09T23:54:25.537Z,99.90
2023-04-09T23:58:26.662Z,99.90
